Elliott, Iowa
Current Conditions -  °F | °C
As of 9:15 PM on Wednesday 22 Oct 2014 (Local Time) from KRDK Reporting Station
Overcast Overcast  
Wind Chill: 64°   Ceiling: 5500
Heat Index: 64°   Visibility: 10mi
Dew Point: 50°   Wind: 13mph
Humidity: 59%   Direction: 160°SSE
Pressure: 30.05"   Gusts: 20mph
Location:  41.15°N, 95.16°W
Report Text: KRDK 230215Z AUTO 16011G17KT 10SM BKN055 BKN075 OVC120 18/10 A3005 RMK AO2
Loading
Personal Weather Stations






























Interactive Weather Map
Tropical Storm Tracking
New forecast layout! Learn more

10-Day Weather Forecast

Advertisements
Track Severe Weather on mobile